Etusivu
METAR-TAF:

METAR-TAF

Lentoasemat :

University-Oxford_Airport

Oxford, Mississippi, Yhdysvallat

Leveyspiiri: 34-23-04N, Pituuspiiri: 089-32-08W, korkeus merenpinnasta: 138 m

Tämänhetkinen sää

Tämä raportti tehtiin 22 minuuttia sitten, kello 11.55 UTC
Tuuli 10 kn kaakosta puuskistuen 16 kn:hen
Lämpötila 7°C
Kosteus 100%
Ilmanpaine 1012 hPa
Näkyvyys: 16.1 km
Hajonneita pilviä 4000 ft:n korkeudessa
Pilvistä 5000 ft:n korkeudessa

METAR: KUOX 241155Z AUTO 14010G16KT 10SM BKN040 OVC050 07/07 A2989 RMK AO2

Aika: 06:17 (12:17 UTC)


TAF: puuttuu

Säähavainnot ja -ennusteet yli 4000 lentoasemalta (METAR- ja TAF-raportit).

Käytössä olevat sääasemat on merkitty karttaan keltaisilla ja punaisilla pisteillä.

Aseta hiiri pisteen päälle nähdäksesi sääaseman nimen.

Klikkaa sitten nähdäksesi säähavainnot ja -ennusteet.

Kartan vaihtaminen: klikkaa mustalla rastilla varustettuja vihreitä pisteitä, niin voit zoomata sisään; viivalla varustettua vihreää pistettä, niin voit zoomata ulos tai vihreitä nuolia, niin pääset viereisille kartoille.


METAR-TAF: